Time;durP1;ratioP1;P1;durP2;ratioP2;P2;SDS_P1;SDS_P2;PMS_P1;PMS_P2;Temp;Humidity;BMP_temperature;BMP_pressure;BME280_temperature;BME280_humidity;BME280_pressure;Samples;Min_cycle;Max_cycle;Signal;HPM_P1;HPM_P2
2022/09/05 00:00:18;;;;;;;2.03;1.92;;;23.10;69.10;;;;;;4998493;28;20313;-72
2022/09/05 00:03:10;;;;;;;1.80;1.67;;;23.10;69.10;;;;;;5031897;28;20184;-72
2022/09/05 00:06:05;;;;;;;1.90;1.80;;;23.10;69.00;;;;;;5016627;28;20183;-72
2022/09/05 00:09:16;;;;;;;1.50;1.40;;;23.10;69.00;;;;;;5032375;28;20274;-72
2022/09/05 00:11:54;;;;;;;3.38;1.80;;;23.10;69.90;;;;;;4976026;28;20217;-71
2022/09/05 00:14:42;;;;;;;3.95;2.03;;;23.20;69.20;;;;;;5012412;28;20200;-72
2022/09/05 00:17:32;;;;;;;1.92;1.73;;;23.10;69.00;;;;;;4999903;28;20246;-72
2022/09/05 00:20:22;;;;;;;2.22;1.80;;;23.10;68.90;;;;;;5014953;28;20604;-72
2022/09/05 00:23:29;;;;;;;2.35;1.48;;;23.20;69.10;;;;;;5015028;28;20192;-72
2022/09/05 00:26:45;;;;;;;2.28;1.70;;;23.10;69.00;;;;;;5014114;28;20287;-72
2022/09/05 00:29:20;;;;;;;3.40;1.60;;;23.10;68.90;;;;;;4974078;28;20189;-72
2022/09/05 00:32:09;;;;;;;1.50;1.40;;;23.10;68.90;;;;;;5014306;28;20266;-72
2022/09/05 00:34:47;;;;;;;2.25;1.50;;;23.10;69.00;;;;;;5018317;28;20179;-72
2022/09/05 00:37:37;;;;;;;2.00;1.67;;;23.10;69.10;;;;;;5031277;28;20199;-72
2022/09/05 00:40:20;;;;;;;2.75;1.55;;;23.10;69.10;;;;;;4997461;28;20282;-72
2022/09/05 00:42:56;;;;;;;1.63;1.52;;;23.10;69.00;;;;;;4998005;28;20223;-72
2022/09/05 00:45:31;;;;;;;1.60;1.50;;;23.10;68.90;;;;;;5030976;28;20249;-72
2022/09/05 00:48:33;;;;;;;1.88;1.77;;;23.10;68.90;;;;;;5014714;28;20180;-72
2022/09/05 00:51:49;;;;;;;1.77;1.40;;;23.10;69.00;;;;;;5015473;28;20342;-72
2022/09/05 00:54:40;;;;;;;2.00;1.90;;;23.10;69.10;;;;;;5032227;28;20194;-72
2022/09/05 00:57:35;;;;;;;1.83;1.73;;;23.10;69.00;;;;;;5016849;28;20188;-72
2022/09/05 01:00:12;;;;;;;1.55;1.42;;;23.10;69.00;;;;;;5031300;28;20291;-72
2022/09/05 01:03:09;;;;;;;1.65;1.55;;;23.10;69.10;;;;;;5016516;28;20274;-71
2022/09/05 01:05:50;;;;;;;2.00;1.50;;;23.10;69.10;;;;;;5015395;28;20203;-71
2022/09/05 01:08:46;;;;;;;2.88;1.60;;;23.10;69.00;;;;;;5014840;28;20202;-72
2022/09/05 01:11:42;;;;;;;2.28;1.50;;;23.10;69.00;;;;;;4998566;28;20215;-72
2022/09/05 01:14:38;;;;;;;1.65;1.55;;;23.10;69.00;;;;;;5015565;28;20226;-72
2022/09/05 01:17:34;;;;;;;2.17;1.90;;;23.10;69.00;;;;;;5031130;28;20188;-72
2022/09/05 01:20:11;;;;;;;1.73;1.63;;;23.00;69.00;;;;;;5031101;28;20216;-72
2022/09/05 01:22:45;;;;;;;1.58;1.48;;;23.10;69.00;;;;;;5015857;28;20207;-72
2022/09/05 01:25:58;;;;;;;2.58;1.70;;;23.00;68.90;;;;;;5017058;28;20183;-72
2022/09/05 01:28:43;;;;;;;1.52;1.40;;;23.00;68.90;;;;;;5035472;28;20187;-72
2022/09/05 01:31:29;;;;;;;2.58;1.20;;;23.00;69.00;;;;;;5035729;28;20202;-72
2022/09/05 01:34:22;;;;;;;1.95;1.55;;;23.00;69.00;;;;;;5034451;28;20187;-72
2022/09/05 01:37:26;;;;;;;1.65;1.55;;;23.00;68.90;;;;;;5017821;28;20202;-72
2022/09/05 01:40:06;;;;;;;1.65;1.48;;;23.10;69.00;;;;;;5033985;28;20416;-72
2022/09/05 01:43:07;;;;;;;1.60;1.50;;;23.00;69.00;;;;;;5035414;28;20183;-72
2022/09/05 01:45:55;;;;;;;2.15;1.58;;;23.00;69.00;;;;;;5032418;28;20237;-72
2022/09/05 01:48:56;;;;;;;1.70;1.60;;;23.00;69.00;;;;;;5034011;28;20658;-72
2022/09/05 01:51:39;;;;;;;1.38;1.27;;;23.00;69.00;;;;;;5034737;28;20207;-72
2022/09/05 01:54:14;;;;;;;2.58;1.77;;;23.00;69.00;;;;;;5034185;28;20175;-72
2022/09/05 01:57:05;;;;;;;1.70;1.60;;;23.00;68.90;;;;;;5035410;28;20178;-72
2022/09/05 01:59:57;;;;;;;1.60;1.50;;;23.00;68.90;;;;;;5034313;28;20241;-72
2022/09/05 02:02:53;;;;;;;2.33;1.40;;;23.00;68.90;;;;;;5035332;28;20257;-72
2022/09/05 02:05:56;;;;;;;1.38;1.17;;;23.00;68.90;;;;;;5027902;28;20667;-72
2022/09/05 02:09:03;;;;;;;1.70;1.40;;;23.00;68.90;;;;;;5033801;28;20198;-72
2022/09/05 02:11:43;;;;;;;1.45;1.35;;;23.00;69.00;;;;;;5033229;28;20186;-72
2022/09/05 02:14:37;;;;;;;2.15;1.50;;;23.00;68.80;;;;;;5033910;28;20209;-72
2022/09/05 02:17:38;;;;;;;1.73;1.42;;;22.90;68.80;;;;;;5033128;28;20183;-72
2022/09/05 02:20:59;;;;;;;1.42;1.33;;;23.00;68.90;;;;;;5032774;28;20210;-72
2022/09/05 02:24:00;;;;;;;1.38;1.23;;;23.00;69.00;;;;;;5030802;28;20199;-72
2022/09/05 02:26:41;;;;;;;1.83;1.55;;;23.00;68.90;;;;;;5036708;28;20192;-72
2022/09/05 02:29:26;;;;;;;1.67;1.25;;;22.90;68.80;;;;;;5034993;28;20179;-72
2022/09/05 02:32:12;;;;;;;1.63;1.40;;;22.90;68.90;;;;;;5033391;28;20207;-72
2022/09/05 02:35:00;;;;;;;1.75;1.60;;;22.90;68.90;;;;;;5035136;28;20262;-71
2022/09/05 02:37:44;;;;;;;1.60;1.30;;;23.00;68.90;;;;;;5035662;28;20179;-72
2022/09/05 02:40:52;;;;;;;1.48;1.40;;;22.90;68.80;;;;;;5014744;28;20303;-72
2022/09/05 02:43:41;;;;;;;1.95;1.58;;;22.90;68.80;;;;;;5016090;28;20246;-72
2022/09/05 02:46:34;;;;;;;1.73;1.60;;;22.90;68.90;;;;;;5033462;28;20192;-71
2022/09/05 02:49:26;;;;;;;1.40;1.30;;;22.90;68.80;;;;;;5018912;28;20196;-71
2022/09/05 02:52:08;;;;;;;2.05;1.30;;;22.90;68.70;;;;;;5002351;28;20222;-72
2022/09/05 02:54:42;;;;;;;1.40;1.30;;;22.90;68.80;;;;;;5035028;28;20241;-72
2022/09/05 02:57:43;;;;;;;1.42;1.33;;;22.90;68.80;;;;;;5035518;28;20188;-72
2022/09/05 03:00:22;;;;;;;1.40;1.30;;;22.90;68.80;;;;;;5019759;28;20257;-72
2022/09/05 03:03:46;;;;;;;1.50;1.40;;;22.90;68.80;;;;;;5036534;28;20195;-72
2022/09/05 03:06:40;;;;;;;1.73;1.50;;;22.90;68.60;;;;;;4990702;28;20211;-72
2022/09/05 03:10:03;;;;;;;1.40;1.30;;;22.90;68.90;;;;;;5036128;28;20215;-72
2022/09/05 03:13:09;;;;;;;1.33;1.23;;;22.90;68.70;;;;;;5020945;28;20209;-71
2022/09/05 03:16:20;;;;;;;1.25;1.17;;;22.90;68.80;;;;;;5020859;28;20191;-71
2022/09/05 03:19:26;;;;;;;1.17;1.15;;;22.90;68.80;;;;;;5020174;28;20192;-72
2022/09/05 03:22:32;;;;;;;1.55;1.45;;;22.90;68.90;;;;;;5017919;28;20180;-72
2022/09/05 03:25:10;;;;;;;1.42;1.33;;;22.90;68.80;;;;;;5005114;28;20183;-72
2022/09/05 03:28:19;;;;;;;1.52;1.02;;;22.90;68.80;;;;;;5036644;28;20241;-72
2022/09/05 03:31:39;;;;;;;1.40;1.30;;;22.90;68.80;;;;;;5039119;28;20202;-72
2022/09/05 03:35:01;;;;;;;1.35;1.25;;;22.90;68.70;;;;;;5037764;28;20341;-72
2022/09/05 03:38:24;;;;;;;1.27;1.17;;;22.90;68.90;;;;;;5038363;28;20249;-72
2022/09/05 03:41:14;;;;;;;2.83;1.50;;;22.90;68.80;;;;;;5037458;28;20199;-73
2022/09/05 03:43:59;;;;;;;1.40;1.30;;;22.90;68.80;;;;;;5038868;28;20171;-72
2022/09/05 03:47:14;;;;;;;1.40;1.30;;;22.90;68.80;;;;;;5036970;28;20643;-72
2022/09/05 03:50:31;;;;;;;1.30;1.20;;;22.90;68.80;;;;;;5036236;28;20203;-72
2022/09/05 03:53:18;;;;;;;1.38;1.20;;;22.80;68.70;;;;;;5037653;28;20196;-72
2022/09/05 03:56:18;;;;;;;1.40;1.10;;;22.90;68.80;;;;;;5037665;28;20179;-72
2022/09/05 03:59:08;;;;;;;1.50;1.40;;;22.90;68.80;;;;;;5021091;28;20210;-72
2022/09/05 04:01:46;;;;;;;1.60;1.50;;;22.80;68.60;;;;;;5037454;28;20186;-72
2022/09/05 04:04:42;;;;;;;2.20;1.30;;;22.80;68.60;;;;;;5054590;28;20233;-72
2022/09/05 04:07:18;;;;;;;1.30;1.20;;;22.80;68.70;;;;;;5021947;28;20183;-72
2022/09/05 04:09:52;;;;;;;1.77;1.50;;;22.80;68.70;;;;;;5037548;28;20203;-72
2022/09/05 04:12:33;;;;;;;1.48;1.38;;;22.80;68.60;;;;;;5037995;28;20211;-72
2022/09/05 04:15:21;;;;;;;1.50;1.40;;;22.80;68.70;;;;;;5038310;28;20172;-72
2022/09/05 04:17:58;;;;;;;1.58;1.48;;;22.90;68.70;;;;;;5035660;28;20191;-72
2022/09/05 04:20:47;;;;;;;1.50;1.40;;;22.80;68.50;;;;;;5035042;28;20260;-72
2022/09/05 04:23:22;;;;;;;1.17;1.17;;;22.80;68.70;;;;;;5020053;28;20252;-72
2022/09/05 04:26:09;;;;;;;1.48;1.38;;;22.80;68.60;;;;;;5035584;28;20179;-73
2022/09/05 04:28:58;;;;;;;1.70;1.35;;;22.80;68.70;;;;;;5036632;28;20172;-73
2022/09/05 04:32:07;;;;;;;1.40;1.30;;;22.80;68.70;;;;;;5035571;28;20207;-72
2022/09/05 04:35:14;;;;;;;1.05;1.05;;;22.80;68.50;;;;;;5027494;28;20195;-72
2022/09/05 04:37:58;;;;;;;1.83;1.20;;;22.80;68.80;;;;;;5015369;28;20183;-72
2022/09/05 04:40:45;;;;;;;1.40;1.30;;;22.80;68.70;;;;;;5031605;28;20215;-72
2022/09/05 04:43:17;;;;;;;1.52;1.42;;;22.80;68.70;;;;;;5031036;28;20176;-72
2022/09/05 04:46:19;;;;;;;1.63;1.52;;;22.80;68.60;;;;;;5014262;28;20668;-72
2022/09/05 04:49:23;;;;;;;1.15;1.13;;;22.80;68.50;;;;;;4998820;28;20563;-72
2022/09/05 04:52:10;;;;;;;2.00;1.13;;;22.80;68.60;;;;;;5014711;28;20641;-72
2022/09/05 04:55:01;;;;;;;1.30;1.20;;;22.80;68.60;;;;;;4999588;28;20601;-72
2022/09/05 04:57:33;;;;;;;1.98;1.40;;;22.80;68.60;;;;;;5034934;28;20184;-72
2022/09/05 05:00:14;;;;;;;1.40;1.30;;;22.70;68.40;;;;;;5032928;28;20230;-72
2022/09/05 05:02:59;;;;;;;1.48;1.38;;;22.80;68.60;;;;;;5017486;28;20251;-72
2022/09/05 05:05:47;;;;;;;2.45;1.40;;;22.80;68.70;;;;;;5034184;28;20184;-72
2022/09/05 05:09:04;;;;;;;1.10;1.10;;;22.80;68.60;;;;;;5016673;28;20254;-72
2022/09/05 05:11:47;;;;;;;1.25;1.20;;;22.80;68.60;;;;;;4974349;28;20256;-72
2022/09/05 05:14:45;;;;;;;1.30;1.10;;;22.80;68.60;;;;;;5011560;28;20196;-72
2022/09/05 05:17:23;;;;;;;1.35;1.25;;;22.70;68.50;;;;;;5014806;28;20184;-72
2022/09/05 05:20:27;;;;;;;1.23;1.23;;;22.80;68.60;;;;;;4998244;28;20311;-72
2022/09/05 05:23:19;;;;;;;1.00;1.00;;;22.80;68.70;;;;;;5037891;28;20191;-72
2022/09/05 05:25:57;;;;;;;2.70;1.10;;;22.70;68.40;;;;;;5016156;28;20181;-72
2022/09/05 05:28:42;;;;;;;6.18;1.67;;;22.80;68.80;;;;;;5017512;28;20188;-72
2022/09/05 05:31:15;;;;;;;3.45;1.60;;;22.70;69.10;;;;;;5017575;28;20212;-72
2022/09/05 05:33:47;;;;;;;3.30;1.55;;;22.80;69.20;;;;;;5017439;28;20219;-72
2022/09/05 05:36:25;;;;;;;7.47;1.65;;;22.80;69.30;;;;;;4999905;28;20184;-72
2022/09/05 05:39:06;;;;;;;2.78;1.45;;;22.80;69.30;;;;;;5017708;28;20655;-72
2022/09/05 05:41:37;;;;;;;2.22;1.77;;;22.80;69.40;;;;;;5033073;28;20188;-73
2022/09/05 05:44:16;;;;;;;2.17;1.70;;;22.80;69.40;;;;;;5001492;28;20188;-71
2022/09/05 05:46:57;;;;;;;2.72;1.73;;;22.80;69.50;;;;;;5002635;28;20186;-72
2022/09/05 05:49:52;;;;;;;5.47;2.03;;;22.80;69.60;;;;;;5019624;28;20706;-72
2022/09/05 05:52:27;;;;;;;3.25;1.58;;;22.80;69.70;;;;;;5018030;28;20212;-72
2022/09/05 05:55:37;;;;;;;4.88;1.70;;;22.80;69.80;;;;;;5020543;28;20307;-72
2022/09/05 05:58:40;;;;;;;2.50;1.70;;;22.80;69.80;;;;;;5019672;28;20183;-72
2022/09/05 06:01:15;;;;;;;4.22;1.75;;;22.80;69.80;;;;;;5002181;28;20203;-72
2022/09/05 06:04:33;;;;;;;1.92;1.40;;;22.80;70.00;;;;;;5019098;28;20176;-72
2022/09/05 06:07:21;;;;;;;1.85;1.52;;;22.80;70.00;;;;;;5000964;28;20645;-72
2022/09/05 06:10:40;;;;;;;2.92;1.42;;;22.80;70.00;;;;;;5017251;28;20211;-72
2022/09/05 06:13:52;;;;;;;3.92;1.27;;;22.70;69.50;;;;;;5034057;28;20263;-72
2022/09/05 06:16:49;;;;;;;2.72;1.42;;;22.60;68.10;;;;;;5017883;28;20176;-72
2022/09/05 06:19:43;;;;;;;2.25;1.50;;;22.60;67.70;;;;;;5016381;28;20188;-71
2022/09/05 06:22:40;;;;;;;1.65;1.52;;;22.40;67.10;;;;;;5021073;28;20191;-72
2022/09/05 06:25:37;;;;;;;1.50;1.40;;;22.40;67.00;;;;;;5021992;28;20164;-72
2022/09/05 06:28:41;;;;;;;2.22;1.80;;;22.40;67.00;;;;;;5019656;28;20230;-71
2022/09/05 06:31:34;;;;;;;1.70;1.60;;;22.40;67.00;;;;;;5020145;28;20203;-73
2022/09/05 06:34:50;;;;;;;1.85;1.75;;;22.40;67.10;;;;;;5018703;28;20210;-71
2022/09/05 06:37:25;;;;;;;4.38;2.00;;;22.40;67.60;;;;;;5012506;28;20192;-72
2022/09/05 06:40:18;;;;;;;1.95;1.85;;;22.40;68.00;;;;;;5003226;28;20211;-72
2022/09/05 06:43:26;;;;;;;3.60;1.77;;;22.40;68.30;;;;;;5019557;28;20180;-72
2022/09/05 06:46:07;;;;;;;1.63;1.50;;;22.40;68.60;;;;;;5019869;28;20198;-72
2022/09/05 06:49:05;;;;;;;1.90;1.70;;;22.50;68.90;;;;;;5018523;28;20180;-72
2022/09/05 06:52:12;;;;;;;1.95;1.70;;;22.40;68.90;;;;;;5012948;28;20196;-72
2022/09/05 06:55:41;;;;;;;2.33;2.13;;;22.40;69.20;;;;;;5034361;28;20241;-72
2022/09/05 06:58:47;;;;;;;2.63;1.70;;;22.50;69.60;;;;;;5037248;28;20195;-72
2022/09/05 07:01:25;;;;;;;1.90;1.73;;;22.50;69.60;;;;;;5017663;28;20212;-72
2022/09/05 07:04:18;;;;;;;1.70;1.60;;;22.50;70.10;;;;;;5002382;28;20647;-72
2022/09/05 07:07:05;;;;;;;4.20;2.15;;;22.50;70.30;;;;;;5000898;28;20726;-73
2022/09/05 07:09:59;;;;;;;2.00;1.90;;;22.50;70.50;;;;;;5000599;28;20212;-72
2022/09/05 07:12:43;;;;;;;2.10;1.90;;;22.60;70.50;;;;;;5001897;28;20220;-72
2022/09/05 07:15:38;;;;;;;2.10;2.00;;;22.60;70.40;;;;;;5002506;28;20180;-73
2022/09/05 07:18:33;;;;;;;4.20;2.20;;;22.60;70.10;;;;;;5011330;28;20227;-72
2022/09/05 07:21:16;;;;;;;2.28;2.08;;;22.60;70.10;;;;;;5013848;28;20263;-72
2022/09/05 07:23:59;;;;;;;2.20;2.00;;;22.70;70.20;;;;;;5000637;28;20202;-72
2022/09/05 07:26:27;;;;;;;2.80;2.05;;;22.70;70.20;;;;;;5011582;28;20204;-71
2022/09/05 07:29:03;;;;;;;2.53;2.08;;;22.70;70.20;;;;;;5020412;28;20245;-72
2022/09/05 07:31:35;;;;;;;3.03;2.28;;;22.70;70.20;;;;;;5020076;28;20187;-71
2022/09/05 07:34:27;;;;;;;3.13;1.90;;;22.70;70.50;;;;;;5019737;28;20225;-72
2022/09/05 07:37:09;;;;;;;2.20;2.00;;;22.70;70.50;;;;;;5036098;28;20182;-72
2022/09/05 07:39:47;;;;;;;2.20;2.00;;;22.70;70.60;;;;;;5035727;28;20203;-72
2022/09/05 07:42:43;;;;;;;2.05;1.95;;;22.80;70.70;;;;;;5037746;28;20195;-73
2022/09/05 07:45:26;;;;;;;2.10;2.00;;;22.80;70.70;;;;;;5017139;28;20198;-72
2022/09/05 07:48:10;;;;;;;2.28;2.08;;;22.90;70.80;;;;;;5036188;28;20237;-72
2022/09/05 07:50:55;;;;;;;2.65;2.40;;;22.90;70.90;;;;;;5036143;28;20694;-73
2022/09/05 07:53:23;;;;;;;2.95;2.30;;;22.90;70.90;;;;;;5036736;28;20226;-72
2022/09/05 07:55:57;;;;;;;2.55;2.35;;;23.00;71.00;;;;;;5036386;28;20294;-72
2022/09/05 07:58:49;;;;;;;3.00;2.30;;;23.00;70.90;;;;;;5031157;28;20192;-72
2022/09/05 08:01:20;;;;;;;2.63;2.30;;;23.10;71.00;;;;;;5044102;28;20226;-73
2022/09/05 08:03:54;;;;;;;3.45;2.20;;;23.10;71.00;;;;;;5019194;28;20198;-73
2022/09/05 08:06:25;;;;;;;2.40;2.20;;;23.10;70.90;;;;;;5017798;28;20233;-72
2022/09/05 08:09:30;;;;;;;2.20;2.00;;;23.10;70.90;;;;;;5017882;28;20187;-73
2022/09/05 08:12:02;;;;;;;2.47;2.28;;;23.20;71.00;;;;;;5031995;28;20259;-73
2022/09/05 08:14:47;;;;;;;3.58;2.03;;;23.20;71.00;;;;;;5019132;28;20274;-72
2022/09/05 08:17:21;;;;;;;2.42;2.20;;;23.30;70.90;;;;;;5018467;28;20210;-72
2022/09/05 08:20:27;;;;;;;2.05;1.90;;;23.30;70.90;;;;;;5030480;28;20191;-72
2022/09/05 08:23:18;;;;;;;3.15;2.10;;;23.30;71.00;;;;;;5024079;28;20203;-73
2022/09/05 08:26:10;;;;;;;4.88;2.88;;;23.30;71.00;;;;;;5035531;28;20188;-73
2022/09/05 08:28:56;;;;;;;2.55;2.25;;;23.40;71.60;;;;;;5019712;28;20401;-72
2022/09/05 08:32:08;;;;;;;3.10;2.50;;;23.40;71.60;;;;;;5035995;28;20207;-72
2022/09/05 08:34:55;;;;;;;3.55;1.75;;;23.40;71.70;;;;;;5036392;28;20277;-72
2022/09/05 08:37:25;;;;;;;3.47;2.47;;;23.40;71.50;;;;;;5035028;28;20187;-73
2022/09/05 08:39:56;;;;;;;4.45;2.25;;;23.40;71.60;;;;;;5032594;28;20211;-72
2022/09/05 08:42:45;;;;;;;2.08;1.98;;;23.40;71.70;;;;;;5033008;28;20199;-72
2022/09/05 08:45:38;;;;;;;2.42;2.22;;;23.40;72.00;;;;;;5017335;28;20184;-72
2022/09/05 08:48:26;;;;;;;2.03;1.90;;;23.50;72.00;;;;;;5033160;28;20184;-72
2022/09/05 08:51:36;;;;;;;2.30;1.98;;;23.50;72.00;;;;;;5032648;28;20216;-72
2022/09/05 08:55:02;;;;;;;2.72;2.08;;;23.50;72.00;;;;;;5030816;28;20199;-72
2022/09/05 08:58:14;;;;;;;3.22;1.83;;;23.50;72.20;;;;;;5020701;28;20206;-72
2022/09/05 09:00:50;;;;;;;3.00;1.95;;;23.50;72.20;;;;;;5017367;28;20222;-72
2022/09/05 09:04:07;;;;;;;2.90;2.03;;;23.50;72.40;;;;;;5019540;28;20175;-72
2022/09/05 09:07:06;;;;;;;2.22;2.03;;;23.50;72.40;;;;;;5017838;28;20199;-72
2022/09/05 09:10:15;;;;;;;2.67;2.17;;;23.60;72.30;;;;;;5032089;28;20214;-71
2022/09/05 09:13:09;;;;;;;2.45;1.95;;;23.50;72.20;;;;;;5037538;28;20294;-72
2022/09/05 09:16:11;;;;;;;3.67;2.00;;;23.60;72.60;;;;;;5034885;28;20191;-71
2022/09/05 09:18:46;;;;;;;1.95;1.85;;;23.60;72.50;;;;;;5035891;28;20199;-72
2022/09/05 09:21:53;;;;;;;3.22;1.98;;;23.60;72.80;;;;;;5035234;28;20268;-72
2022/09/05 09:24:38;;;;;;;2.25;2.05;;;23.60;73.50;;;;;;5006201;28;20295;-72
2022/09/05 09:27:21;;;;;;;2.17;2.08;;;23.60;72.80;;;;;;5029254;28;20187;-72
2022/09/05 09:29:52;;;;;;;3.10;1.95;;;23.60;72.70;;;;;;5036443;28;20222;-72
2022/09/05 09:32:23;;;;;;;3.08;2.38;;;23.60;72.80;;;;;;5036670;28;20306;-72
2022/09/05 09:35:13;;;;;;;2.10;2.00;;;23.60;72.80;;;;;;5036821;28;20179;-72
2022/09/05 09:38:20;;;;;;;2.40;2.00;;;23.60;72.70;;;;;;5036346;28;20209;-72
2022/09/05 09:41:32;;;;;;;2.17;1.92;;;23.60;72.80;;;;;;5035713;28;20218;-72
2022/09/05 09:44:56;;;;;;;2.38;2.00;;;23.60;72.80;;;;;;5037742;28;20192;-72
2022/09/05 09:47:35;;;;;;;2.67;2.10;;;23.60;72.70;;;;;;5038127;28;20194;-72
2022/09/05 09:50:13;;;;;;;2.47;2.28;;;23.60;72.80;;;;;;5036365;28;20229;-72
2022/09/05 09:53:20;;;;;;;2.55;1.92;;;23.60;72.80;;;;;;5037444;28;20302;-72
2022/09/05 09:56:20;;;;;;;2.00;1.90;;;23.60;72.80;;;;;;5031444;28;20187;-72
2022/09/05 09:58:46;;;;;;;2.08;1.95;;;23.60;72.80;;;;;;5017092;28;20266;-72
2022/09/05 10:01:23;;;;;;;2.35;2.13;;;23.60;72.80;;;;;;5037038;28;20233;-73
2022/09/05 10:04:16;;;;;;;2.05;1.85;;;23.60;72.90;;;;;;5035747;28;20183;-71
2022/09/05 10:07:26;;;;;;;2.28;2.08;;;23.60;72.90;;;;;;5036376;28;20191;-72
2022/09/05 10:10:11;;;;;;;5.68;2.28;;;23.60;73.10;;;;;;5031365;28;20207;-72
2022/09/05 10:13:14;;;;;;;2.55;2.13;;;23.60;73.20;;;;;;5021210;28;20304;-72
2022/09/05 10:16:24;;;;;;;4.22;2.20;;;23.60;73.00;;;;;;5036401;28;20254;-72
2022/09/05 10:19:27;;;;;;;3.97;2.10;;;23.70;73.10;;;;;;5033010;28;20197;-73
2022/09/05 10:22:23;;;;;;;2.35;1.90;;;23.70;73.20;;;;;;5026019;28;20190;-72
2022/09/05 10:25:26;;;;;;;3.65;2.08;;;23.70;73.20;;;;;;5007974;28;20173;-72
2022/09/05 10:28:16;;;;;;;2.38;2.10;;;23.70;73.30;;;;;;5034279;28;20206;-72
2022/09/05 10:31:09;;;;;;;2.22;2.03;;;23.70;73.30;;;;;;5033078;28;20207;-72
2022/09/05 10:33:41;;;;;;;2.15;1.95;;;23.70;73.40;;;;;;5036073;28;20203;-72
2022/09/05 10:36:27;;;;;;;2.67;2.22;;;23.70;73.40;;;;;;5018867;28;20176;-73
2022/09/05 10:39:13;;;;;;;2.65;2.40;;;23.70;73.40;;;;;;5017086;28;20192;-72
2022/09/05 10:42:05;;;;;;;2.20;2.03;;;23.70;73.40;;;;;;5033338;28;20187;-74
2022/09/05 10:44:44;;;;;;;2.45;2.17;;;23.70;73.30;;;;;;5045258;28;20188;-72
2022/09/05 10:47:41;;;;;;;2.00;1.90;;;23.70;73.20;;;;;;5046084;28;20246;-72
2022/09/05 10:50:32;;;;;;;3.13;2.20;;;23.70;73.30;;;;;;5035169;28;20271;-72
2022/09/05 10:53:19;;;;;;;3.80;2.70;;;23.70;73.40;;;;;;5036161;28;20211;-72
2022/09/05 10:56:18;;;;;;;2.80;2.50;;;23.70;73.30;;;;;;5036853;28;20195;-72
2022/09/05 10:59:18;;;;;;;3.05;2.00;;;23.70;73.20;;;;;;5036221;28;20183;-72
2022/09/05 11:02:05;;;;;;;2.42;2.08;;;23.80;73.30;;;;;;5035445;28;20195;-72
2022/09/05 11:04:52;;;;;;;4.55;2.40;;;23.70;73.10;;;;;;5036058;28;20219;-72
2022/09/05 11:07:42;;;;;;;2.55;2.08;;;23.80;73.90;;;;;;5038089;28;20633;-72
2022/09/05 11:10:20;;;;;;;2.80;1.98;;;23.80;73.00;;;;;;5037074;28;20218;-72
2022/09/05 11:12:57;;;;;;;2.90;1.88;;;23.70;73.00;;;;;;5037832;28;20317;-72
2022/09/05 11:15:45;;;;;;;3.95;2.05;;;23.80;73.00;;;;;;5037072;28;20198;-72
2022/09/05 11:18:51;;;;;;;2.10;1.90;;;23.80;73.00;;;;;;5030585;28;20227;-72
2022/09/05 11:21:30;;;;;;;2.97;2.28;;;23.80;73.10;;;;;;5036747;28;20225;-72
2022/09/05 11:24:25;;;;;;;2.30;2.05;;;23.80;73.10;;;;;;5019457;28;20265;-72
2022/09/05 11:27:34;;;;;;;3.47;2.15;;;23.80;73.10;;;;;;5024119;28;20230;-73
2022/09/05 11:30:22;;;;;;;2.65;1.92;;;23.80;73.20;;;;;;5030041;28;20219;-72
2022/09/05 11:33:30;;;;;;;2.65;1.90;;;23.80;73.20;;;;;;5036620;28;20202;-72
2022/09/05 11:36:13;;;;;;;3.13;1.92;;;23.80;73.00;;;;;;5037386;28;20265;-72
2022/09/05 11:39:31;;;;;;;2.50;2.00;;;23.80;73.00;;;;;;5019837;28;20183;-73
2022/09/05 11:42:42;;;;;;;2.53;1.83;;;23.80;73.00;;;;;;5016351;28;20202;-72
2022/09/05 11:45:47;;;;;;;3.83;1.80;;;23.80;72.90;;;;;;5025770;28;20199;-73
2022/09/05 11:48:35;;;;;;;3.63;1.88;;;23.80;72.90;;;;;;5029679;28;20244;-72
2022/09/05 11:51:28;;;;;;;4.85;2.13;;;23.80;73.00;;;;;;5036744;28;20207;-72
2022/09/05 11:54:37;;;;;;;3.15;2.03;;;23.80;73.00;;;;;;5036821;28;20247;-72
2022/09/05 11:57:43;;;;;;;3.90;2.10;;;23.80;73.00;;;;;;5037453;28;20226;-72
2022/09/05 12:00:36;;;;;;;2.10;1.90;;;23.80;73.10;;;;;;5034142;28;20207;-72
2022/09/05 12:03:24;;;;;;;2.08;1.90;;;23.80;73.00;;;;;;5034697;28;20196;-72
2022/09/05 12:06:10;;;;;;;2.20;1.80;;;23.80;73.10;;;;;;5036721;28;20254;-72
2022/09/05 12:09:00;;;;;;;2.78;2.05;;;23.80;73.30;;;;;;5035558;28;20179;-74
2022/09/05 12:12:09;;;;;;;2.75;1.70;;;23.80;73.20;;;;;;5034514;28;20218;-73
2022/09/05 12:14:50;;;;;;;3.13;1.90;;;23.80;73.30;;;;;;5034500;28;20671;-73
2022/09/05 12:17:45;;;;;;;4.45;2.35;;;23.80;73.20;;;;;;5028495;28;20210;-73
2022/09/05 12:20:52;;;;;;;4.15;2.20;;;23.80;73.10;;;;;;5034005;28;20290;-72
2022/09/05 12:23:27;;;;;;;4.78;2.25;;;23.80;73.00;;;;;;5035624;28;20195;-72
2022/09/05 12:26:08;;;;;;;4.50;2.15;;;23.80;73.00;;;;;;5036268;28;20167;-72
2022/09/05 12:28:51;;;;;;;4.25;2.03;;;23.70;72.90;;;;;;5036091;28;20179;-72
2022/09/05 12:31:37;;;;;;;6.25;2.22;;;23.80;72.90;;;;;;5034692;28;20218;-72
2022/09/05 12:34:11;;;;;;;3.08;2.15;;;23.80;72.90;;;;;;5035525;28;20230;-73
2022/09/05 12:36:43;;;;;;;3.58;2.45;;;23.80;72.90;;;;;;5018854;28;20179;-72
2022/09/05 12:39:44;;;;;;;3.53;2.10;;;23.80;72.80;;;;;;5035601;28;20230;-72
2022/09/05 12:42:28;;;;;;;4.38;2.58;;;23.80;72.80;;;;;;5036402;28;20163;-72
2022/09/05 12:45:19;;;;;;;8.90;2.60;;;23.70;72.70;;;;;;5035581;28;20214;-72
2022/09/05 12:48:09;;;;;;;3.72;2.20;;;23.70;72.80;;;;;;5036265;28;20655;-72
2022/09/05 12:50:50;;;;;;;4.60;2.58;;;23.70;72.90;;;;;;5032716;28;20219;-72
2022/09/05 12:53:19;;;;;;;2.70;2.20;;;23.80;72.80;;;;;;5028751;28;20211;-72
2022/09/05 12:55:56;;;;;;;5.28;2.30;;;23.80;72.70;;;;;;5034349;28;20233;-72
2022/09/05 12:58:26;;;;;;;3.83;2.40;;;23.80;72.60;;;;;;5019023;28;20179;-72
2022/09/05 13:01:16;;;;;;;3.28;2.20;;;23.80;72.60;;;;;;5034128;28;20262;-72
2022/09/05 13:04:03;;;;;;;3.22;2.33;;;23.80;72.60;;;;;;5035045;28;20199;-72
2022/09/05 13:06:46;;;;;;;2.55;2.30;;;23.80;72.30;;;;;;5034621;28;20179;-72
2022/09/05 13:09:36;;;;;;;3.10;2.33;;;23.80;72.30;;;;;;5035492;28;20178;-72
2022/09/05 13:12:26;;;;;;;4.70;2.50;;;23.80;72.30;;;;;;5034454;28;20607;-72
2022/09/05 13:15:18;;;;;;;2.72;2.45;;;23.80;72.40;;;;;;5033093;28;20199;-72
2022/09/05 13:17:52;;;;;;;2.58;2.38;;;23.80;72.40;;;;;;5019522;28;20187;-72
2022/09/05 13:20:38;;;;;;;5.38;2.42;;;23.80;72.50;;;;;;5050766;28;20214;-72
2022/09/05 13:23:32;;;;;;;3.22;2.55;;;23.80;72.50;;;;;;5034721;28;20369;-72
2022/09/05 13:26:16;;;;;;;3.40;2.33;;;23.80;72.40;;;;;;5034686;28;20185;-72
2022/09/05 13:29:17;;;;;;;3.03;2.55;;;23.80;72.40;;;;;;5034186;28;20186;-72
2022/09/05 13:31:49;;;;;;;4.70;2.30;;;23.80;72.30;;;;;;5034138;28;20186;-72
2022/09/05 13:34:35;;;;;;;2.55;2.17;;;23.80;72.30;;;;;;5034173;28;20195;-72
2022/09/05 13:37:28;;;;;;;3.67;2.45;;;23.80;72.40;;;;;;5035329;28;20189;-72
2022/09/05 13:40:09;;;;;;;3.08;2.30;;;23.90;72.50;;;;;;5033162;28;20203;-72
2022/09/05 13:42:43;;;;;;;2.60;2.10;;;23.80;72.40;;;;;;5033660;28;20225;-72
2022/09/05 13:45:17;;;;;;;4.97;2.53;;;23.80;72.40;;;;;;5035140;28;20217;-72
2022/09/05 13:48:03;;;;;;;3.90;2.45;;;23.80;72.40;;;;;;5036711;28;20213;-72
2022/09/05 13:50:42;;;;;;;4.00;2.50;;;23.90;72.60;;;;;;5035040;28;20207;-72
2022/09/05 13:53:50;;;;;;;3.78;2.33;;;23.90;72.60;;;;;;5033733;28;20218;-72
2022/09/05 13:56:30;;;;;;;4.53;2.70;;;23.90;72.60;;;;;;5050729;28;20223;-72
2022/09/05 13:59:12;;;;;;;4.72;2.30;;;23.90;72.60;;;;;;5034251;28;20176;-72
2022/09/05 14:02:31;;;;;;;2.83;2.60;;;23.90;72.60;;;;;;5033805;28;20549;-74
2022/09/05 14:05:23;;;;;;;2.95;2.58;;;23.90;72.40;;;;;;5037487;28;20258;-73
2022/09/05 14:08:16;;;;;;;3.70;2.20;;;23.90;72.50;;;;;;5035372;28;20176;-73
2022/09/05 14:11:39;;;;;;;5.03;2.40;;;23.90;72.50;;;;;;5052505;28;20206;-72
2022/09/05 14:14:22;;;;;;;5.82;2.30;;;23.90;72.50;;;;;;5037518;28;20223;-72
2022/09/05 14:17:08;;;;;;;2.58;2.38;;;23.90;72.40;;;;;;5037560;28;20195;-72
2022/09/05 14:22:43;;;;;;;4.78;2.40;;;23.90;72.20;;;;;;5038091;28;20329;-72
2022/09/05 14:25:21;;;;;;;3.50;2.40;;;23.90;72.30;;;;;;5037021;28;20191;-72
2022/09/05 14:27:49;;;;;;;2.90;2.28;;;23.90;72.30;;;;;;5034634;28;20187;-72
2022/09/05 14:30:35;;;;;;;3.10;2.40;;;23.90;72.20;;;;;;5032675;28;20203;-72
2022/09/05 14:33:43;;;;;;;2.90;2.70;;;23.90;72.20;;;;;;5035470;28;20195;-72
2022/09/05 14:36:40;;;;;;;3.42;2.50;;;23.90;72.20;;;;;;5036057;28;20195;-72
2022/09/05 14:39:30;;;;;;;3.75;2.55;;;23.90;72.10;;;;;;5037978;28;20187;-72
2022/09/05 14:42:30;;;;;;;4.75;2.85;;;23.90;72.90;;;;;;5038379;28;20172;-72
2022/09/05 14:45:23;;;;;;;2.55;2.35;;;23.90;72.10;;;;;;5036466;28;20195;-73
2022/09/05 14:48:33;;;;;;;2.35;2.15;;;23.90;72.30;;;;;;5042623;28;20175;-72
2022/09/05 14:51:33;;;;;;;2.88;2.22;;;23.80;72.30;;;;;;5039701;28;20210;-72
2022/09/05 14:54:25;;;;;;;3.72;2.55;;;23.90;72.50;;;;;;5014211;28;20235;-72